createdAt,value
2022-09-27T00:01:36.345Z,95599.66
2022-09-27T00:04:05.136Z,95597.56
2022-09-27T00:06:32.465Z,95600.59
2022-09-27T00:08:59.899Z,95590.03
2022-09-27T00:11:29.365Z,95607.34
2022-09-27T00:13:57.519Z,95592.28
2022-09-27T00:16:26.496Z,95584.75
2022-09-27T00:18:57.928Z,95581.44
2022-09-27T00:21:26.680Z,95603.44
2022-09-27T00:23:55.542Z,95594.69
2022-09-27T00:26:22.259Z,95595.44
2022-09-27T00:28:51.637Z,95604.94
2022-09-27T00:31:24.156Z,95605.53
2022-09-27T00:33:53.269Z,95609.31
2022-09-27T00:36:24.101Z,95606.59
2022-09-27T00:38:53.330Z,95600.41
2022-09-27T00:41:25.887Z,95599.53
2022-09-27T00:43:58.316Z,95599.97
2022-09-27T00:46:41.146Z,95596.19
2022-09-27T00:49:13.823Z,95596.06
2022-09-27T00:51:45.782Z,95595.75
2022-09-27T00:54:14.943Z,95596.06
2022-09-27T00:56:45.019Z,95588.06
2022-09-27T00:59:17.787Z,95595.31
2022-09-27T01:01:47.200Z,95582.19
2022-09-27T01:04:18.473Z,95591.84
2022-09-27T01:06:47.416Z,95586.09
2022-09-27T01:09:14.149Z,95588.38
2022-09-27T01:11:59.415Z,95589.44
2022-09-27T01:14:45.784Z,95597.25
2022-09-27T01:17:15.593Z,95598.00
2022-09-27T01:19:51.219Z,95602.84
2022-09-27T01:22:29.361Z,95603.44
2022-09-27T01:25:13.540Z,95596.03
2022-09-27T01:28:04.883Z,95610.38
2022-09-27T01:30:43.287Z,95600.09
2022-09-27T01:33:27.571Z,95605.34
2022-09-27T01:35:59.225Z,95603.84
2022-09-27T01:38:56.407Z,95616.63
2022-09-27T01:41:33.798Z,95617.38
2022-09-27T01:44:05.990Z,95611.84
2022-09-27T01:46:35.456Z,95614.53
2022-09-27T01:49:09.822Z,95605.78
2022-09-27T01:51:51.698Z,95609.56
2022-09-27T01:54:24.962Z,95611.22
2022-09-27T01:56:58.098Z,95606.41
2022-09-27T01:59:31.157Z,95603.25
2022-09-27T02:02:04.433Z,95601.13
2022-09-27T02:04:33.883Z,95585.41
2022-09-27T02:07:08.626Z,95603.53
2022-09-27T02:09:42.028Z,95614.53
2022-09-27T02:12:15.348Z,95618.47
2022-09-27T02:14:51.820Z,95612.72
2022-09-27T02:17:56.053Z,95617.84
2022-09-27T02:20:38.463Z,95619.19
2022-09-27T02:23:18.866Z,95624.47
2022-09-27T02:25:57.238Z,95633.22
2022-09-27T02:28:35.591Z,95627.78
2022-09-27T02:31:02.473Z,95626.41
2022-09-27T02:33:39.377Z,95627.47
2022-09-27T02:36:06.253Z,95619.78
2022-09-27T02:38:33.291Z,95622.94
2022-09-27T02:40:59.852Z,95624.47
2022-09-27T02:43:35.668Z,95634.22
2022-09-27T02:46:14.511Z,95629.31
2022-09-27T02:48:44.136Z,95633.06
2022-09-27T02:51:40.208Z,95631.06
2022-09-27T02:54:29.719Z,95624.47
2022-09-27T02:57:02.204Z,95628.38
2022-09-27T02:59:36.835Z,95640.88
2022-09-27T03:02:29.669Z,95641.94
2022-09-27T03:05:02.350Z,95648.25
2022-09-27T03:07:30.336Z,95655.31
2022-09-27T03:09:57.344Z,95671.47
2022-09-27T03:12:27.542Z,95666.16
2022-09-27T03:14:59.224Z,95666.47
2022-09-27T03:17:28.942Z,95668.53
2022-09-27T03:19:57.529Z,95674.84
2022-09-27T03:22:24.098Z,95672.72
2022-09-27T03:24:50.738Z,95671.34
2022-09-27T03:27:17.271Z,95657.63
2022-09-27T03:29:43.815Z,95677.34
2022-09-27T03:32:14.848Z,95673.91
2022-09-27T03:34:41.529Z,95678.56
2022-09-27T03:37:08.456Z,95680.19
2022-09-27T03:39:35.695Z,95690.28
2022-09-27T03:42:02.283Z,95688.44
2022-09-27T03:44:28.792Z,95688.59
2022-09-27T03:46:55.366Z,95691.47
2022-09-27T03:49:21.917Z,95688.44
2022-09-27T03:51:48.446Z,95693.75
2022-09-27T03:54:15.201Z,95685.44
2022-09-27T03:56:41.731Z,95688.75
2022-09-27T03:59:11.275Z,95684.69
2022-09-27T04:01:40.136Z,95687.84
2022-09-27T04:04:11.077Z,95696.88
2022-09-27T04:06:38.304Z,95700.03
2022-09-27T04:09:09.793Z,95696.75
2022-09-27T04:11:39.979Z,95689.53
2022-09-27T04:14:06.986Z,95703.38
2022-09-27T04:16:33.876Z,95675.63
2022-09-27T04:19:01.682Z,95690.16
2022-09-27T04:21:30.946Z,95693.78
2022-09-27T04:23:59.739Z,95692.59
2022-09-27T04:26:26.263Z,95688.34
2022-09-27T04:28:55.691Z,95706.00
2022-09-27T04:31:25.065Z,95690.47
2022-09-27T04:33:51.734Z,95703.06
2022-09-27T04:36:28.256Z,95685.75
2022-09-27T04:39:05.643Z,95700.22
2022-09-27T04:41:32.581Z,95699.16
2022-09-27T04:44:01.909Z,95706.72
2022-09-27T04:46:32.547Z,95703.81
2022-09-27T04:49:02.632Z,95712.72
2022-09-27T04:51:29.570Z,95713.78
2022-09-27T04:53:57.826Z,95709.69
2022-09-27T04:56:24.716Z,95712.53
2022-09-27T04:58:53.934Z,95715.81
2022-09-27T05:01:20.506Z,95713.81
2022-09-27T05:03:47.065Z,95708.06
2022-09-27T05:06:13.753Z,95713.94
2022-09-27T05:08:42.795Z,95725.47
2022-09-27T05:11:11.790Z,95712.56
2022-09-27T05:13:38.288Z,95724.75
2022-09-27T05:16:05.397Z,95735.81
2022-09-27T05:18:34.699Z,95721.44
2022-09-27T05:21:02.000Z,95719.59
2022-09-27T05:23:30.849Z,95741.97
2022-09-27T05:25:57.411Z,95732.44
2022-09-27T05:28:26.727Z,95746.09
2022-09-27T05:30:53.444Z,95742.78
2022-09-27T05:33:20.013Z,95739.97
2022-09-27T05:35:52.629Z,95753.34
2022-09-27T05:38:19.630Z,95756.81
2022-09-27T05:40:50.847Z,95761.81
2022-09-27T05:43:18.473Z,95768.72
2022-09-27T05:45:47.726Z,95776.09
2022-09-27T05:48:14.640Z,95789.31
2022-09-27T05:50:41.239Z,95785.22
2022-09-27T05:53:09.989Z,95781.13
2022-09-27T05:55:41.383Z,95792.53
2022-09-27T05:58:10.328Z,95797.47
2022-09-27T06:00:40.611Z,95806.94
2022-09-27T06:03:07.945Z,95795.00
2022-09-27T06:05:39.473Z,95809.81
2022-09-27T06:08:10.977Z,95801.50
2022-09-27T06:10:41.423Z,95812.19
2022-09-27T06:13:11.676Z,95796.69
2022-09-27T06:15:40.141Z,95820.03
2022-09-27T06:18:11.582Z,95832.22
2022-09-27T06:20:40.337Z,95833.84
2022-09-27T06:23:15.970Z,95833.44
2022-09-27T06:25:42.911Z,95829.34
2022-09-27T06:28:11.964Z,95822.00
2022-09-27T06:30:40.778Z,95832.41
2022-09-27T06:33:12.773Z,95843.09
2022-09-27T06:35:40.358Z,95839.09
2022-09-27T06:38:11.199Z,95845.59
2022-09-27T06:40:40.280Z,95832.47
2022-09-27T06:43:09.738Z,95842.88
2022-09-27T06:45:39.518Z,95839.28
2022-09-27T06:48:10.384Z,95844.56
2022-09-27T06:50:38.519Z,95844.06
2022-09-27T06:53:10.731Z,95852.06
2022-09-27T06:55:38.508Z,95855.31
2022-09-27T06:58:24.776Z,95858.09
2022-09-27T07:00:55.483Z,95844.56
2022-09-27T07:03:33.519Z,95856.28
2022-09-27T07:06:03.854Z,95863.59
2022-09-27T07:08:34.085Z,95861.97
2022-09-27T07:11:11.090Z,95861.56
2022-09-27T07:13:42.813Z,95849.75
2022-09-27T07:16:13.292Z,95856.25
2022-09-27T07:18:43.117Z,95861.34
2022-09-27T07:21:09.723Z,95868.78
2022-09-27T07:23:37.249Z,95864.44
2022-09-27T07:26:08.470Z,95877.75
2022-09-27T07:28:35.411Z,95869.09
2022-09-27T07:31:05.618Z,95861.09
2022-09-27T07:33:32.753Z,95868.38
2022-09-27T07:35:59.351Z,95861.44
2022-09-27T07:38:28.106Z,95858.81
2022-09-27T07:40:54.731Z,95876.09
2022-09-27T07:43:23.724Z,95877.00
2022-09-27T07:45:50.345Z,95891.28
2022-09-27T07:48:17.367Z,95887.53
2022-09-27T07:50:47.814Z,95895.19
2022-09-27T07:53:14.372Z,95893.59
2022-09-27T07:55:41.149Z,95905.84
2022-09-27T07:58:10.889Z,95907.94
2022-09-27T08:00:41.475Z,95892.75
2022-09-27T08:03:10.379Z,95900.00
2022-09-27T08:05:37.175Z,95910.34
2022-09-27T08:08:06.902Z,95897.75
2022-09-27T08:10:34.338Z,95879.31
2022-09-27T08:13:03.654Z,95890.03
2022-09-27T08:15:39.144Z,95887.34
2022-09-27T08:18:07.570Z,95892.69
2022-09-27T08:20:34.137Z,95898.44
2022-09-27T08:23:00.688Z,95898.31
2022-09-27T08:25:30.543Z,95884.31
2022-09-27T08:27:58.683Z,95889.16
2022-09-27T08:30:26.207Z,95892.34
2022-09-27T08:32:56.867Z,95895.69
2022-09-27T08:35:23.671Z,95896.13
2022-09-27T08:37:57.210Z,95897.47
2022-09-27T08:40:42.423Z,95899.31
2022-09-27T08:43:15.817Z,95904.31
2022-09-27T08:45:50.555Z,95904.66
2022-09-27T08:48:17.825Z,95901.19
2022-09-27T08:50:46.782Z,95887.31
2022-09-27T08:53:27.003Z,95909.81
2022-09-27T08:55:59.356Z,95905.28
2022-09-27T08:58:37.091Z,95913.25
2022-09-27T09:01:06.926Z,95914.66
2022-09-27T09:03:47.753Z,95907.69
2022-09-27T09:06:23.895Z,95916.47
2022-09-27T09:09:27.724Z,95906.28
2022-09-27T09:12:49.326Z,95913.56
2022-09-27T09:15:18.164Z,95911.47
2022-09-27T09:18:09.205Z,95905.59
2022-09-27T09:20:54.194Z,95907.84
2022-09-27T09:23:42.577Z,95902.13
2022-09-27T09:26:18.715Z,95904.50
2022-09-27T09:28:57.495Z,95895.31
2022-09-27T09:31:42.600Z,95896.19
2022-09-27T09:34:19.713Z,95887.56
2022-09-27T09:37:14.960Z,95892.72
2022-09-27T09:39:53.090Z,95893.84
2022-09-27T09:42:37.938Z,95891.19
2022-09-27T09:45:07.764Z,95893.63
2022-09-27T09:47:48.208Z,95894.25
2022-09-27T09:50:29.635Z,95888.97
2022-09-27T09:53:20.533Z,95886.59
2022-09-27T09:55:55.667Z,95882.44
2022-09-27T09:58:42.451Z,95890.75
2022-09-27T10:01:17.592Z,95883.97
2022-09-27T10:03:47.065Z,95895.00
2022-09-27T10:06:18.478Z,95895.28
2022-09-27T10:08:45.401Z,95895.13
2022-09-27T10:11:21.797Z,95899.19
2022-09-27T10:13:55.422Z,95890.16
2022-09-27T10:16:23.119Z,95905.84
2022-09-27T10:18:53.222Z,95899.66
2022-09-27T10:21:28.309Z,95895.72
2022-09-27T10:24:12.295Z,95900.09
2022-09-27T10:26:44.691Z,95907.97
2022-09-27T10:29:20.510Z,95901.59
2022-09-27T10:31:52.152Z,95898.94
2022-09-27T10:34:30.685Z,95905.41
2022-09-27T10:37:23.642Z,95903.72
2022-09-27T10:39:51.922Z,95907.56
2022-09-27T10:42:37.862Z,95911.00
2022-09-27T10:45:30.961Z,95914.63
2022-09-27T10:48:02.318Z,95905.97
2022-09-27T10:51:02.327Z,95921.38
2022-09-27T10:53:24.008Z,95916.25
2022-09-27T10:55:52.492Z,95919.41
2022-09-27T10:58:25.260Z,95919.66
2022-09-27T11:00:57.763Z,95909.03
2022-09-27T11:03:26.537Z,95907.31
2022-09-27T11:05:54.799Z,95899.38
2022-09-27T11:08:30.031Z,95895.09
2022-09-27T11:11:17.720Z,95884.13
2022-09-27T11:14:04.543Z,95886.97
2022-09-27T11:16:41.665Z,95890.75
2022-09-27T11:19:15.264Z,95890.28
2022-09-27T11:22:06.134Z,95880.38
2022-09-27T11:24:38.424Z,95884.00
2022-09-27T11:27:20.496Z,95877.56
2022-09-27T11:29:57.297Z,95883.44
2022-09-27T11:32:41.995Z,95889.09
2022-09-27T11:35:35.918Z,95881.75
2022-09-27T11:38:08.405Z,95880.47
2022-09-27T11:40:54.747Z,95883.63
2022-09-27T11:43:55.891Z,95872.16
2022-09-27T11:46:40.275Z,95865.44
2022-09-27T11:49:23.079Z,95874.53
2022-09-27T11:52:23.566Z,95880.19
2022-09-27T11:54:56.279Z,95876.38
2022-09-27T11:57:33.282Z,95865.06
2022-09-27T12:00:24.570Z,95863.84
2022-09-27T12:03:09.527Z,95853.75
2022-09-27T12:06:18.943Z,95854.91
2022-09-27T12:08:54.538Z,95855.94
2022-09-27T12:11:32.779Z,95852.16
2022-09-27T12:14:23.503Z,95857.25
2022-09-27T12:16:54.881Z,95847.75
2022-09-27T12:19:30.570Z,95853.22
2022-09-27T12:22:02.591Z,95840.34
2022-09-27T12:24:30.773Z,95854.75
2022-09-27T12:27:32.827Z,95844.59
2022-09-27T12:30:02.418Z,95836.50
2022-09-27T12:32:55.101Z,95832.91
2022-09-27T12:35:27.873Z,95829.66
2022-09-27T12:38:14.064Z,95825.91
2022-09-27T12:40:45.166Z,95820.63
2022-09-27T12:43:33.102Z,95829.91
2022-09-27T12:46:18.607Z,95826.63
2022-09-27T12:49:05.276Z,95826.22
2022-09-27T12:51:40.360Z,95833.03
2022-09-27T12:54:36.189Z,95830.19
2022-09-27T12:57:27.607Z,95825.63
2022-09-27T13:00:05.558Z,95826.81
2022-09-27T13:03:03.853Z,95838.88
2022-09-27T13:05:42.961Z,95841.28
2022-09-27T13:08:50.752Z,95842.13
2022-09-27T13:11:29.923Z,95824.97
2022-09-27T13:14:02.032Z,95830.78
2022-09-27T13:16:41.340Z,95830.19
2022-09-27T13:19:44.107Z,95835.81
2022-09-27T13:22:37.497Z,95842.50
2022-09-27T13:25:43.289Z,95833.34
2022-09-27T13:28:31.832Z,95843.78
2022-09-27T13:31:07.532Z,95830.19
2022-09-27T13:33:40.619Z,95838.78
2022-09-27T13:36:16.018Z,95824.59
2022-09-27T13:39:11.868Z,95824.44
2022-09-27T13:41:48.735Z,95825.94
2022-09-27T13:44:30.471Z,95817.03
2022-09-27T13:47:03.251Z,95823.84
2022-09-27T13:49:39.836Z,95827.00
2022-09-27T13:52:33.782Z,95815.06
2022-09-27T13:55:06.366Z,95814.47
2022-09-27T13:57:55.639Z,95814.47
2022-09-27T14:00:46.995Z,95811.00
2022-09-27T14:03:15.578Z,95818.44
2022-09-27T14:05:51.704Z,95814.63
2022-09-27T14:08:29.386Z,95829.16
2022-09-27T14:10:59.500Z,95816.59
2022-09-27T14:13:27.121Z,95830.81
2022-09-27T14:15:58.919Z,95837.13
2022-09-27T14:18:30.322Z,95854.03
2022-09-27T14:21:20.732Z,95856.16
2022-09-27T14:23:47.701Z,95848.13
2022-09-27T14:26:24.294Z,95844.22
2022-09-27T14:28:53.300Z,95840.44
2022-09-27T14:31:26.276Z,95837.13
2022-09-27T14:34:05.875Z,95839.22
2022-09-27T14:36:53.208Z,95841.94
2022-09-27T14:39:33.043Z,95838.47
2022-09-27T14:42:00.664Z,95837.28
2022-09-27T14:44:28.559Z,95840.59
2022-09-27T14:47:22.510Z,95839.72
2022-09-27T14:49:53.926Z,95837.44
2022-09-27T14:52:31.444Z,95835.31
2022-09-27T14:55:16.263Z,95838.59
2022-09-27T14:58:04.705Z,95842.38
2022-09-27T15:00:38.686Z,95824.72
2022-09-27T15:03:11.387Z,95831.19
2022-09-27T15:05:41.695Z,95843.09
2022-09-27T15:08:12.340Z,95836.91
2022-09-27T15:10:42.028Z,95826.47
2022-09-27T15:13:15.579Z,95826.03
2022-09-27T15:15:43.163Z,95828.00
2022-09-27T15:18:28.169Z,95835.50
2022-09-27T15:20:54.822Z,95825.28
2022-09-27T15:23:30.310Z,95843.69
2022-09-27T15:26:11.368Z,95840.50
2022-09-27T15:28:44.712Z,95845.03
2022-09-27T15:31:14.714Z,95848.63
2022-09-27T15:33:43.103Z,95844.84
2022-09-27T15:36:15.903Z,95839.13
2022-09-27T15:38:48.760Z,95833.88
2022-09-27T15:41:21.403Z,95846.38
2022-09-27T15:43:53.314Z,95869.16
2022-09-27T15:46:23.079Z,95889.47
2022-09-27T15:49:17.561Z,95913.50
2022-09-27T15:51:49.199Z,95891.13
2022-09-27T15:54:22.533Z,95885.38
2022-09-27T15:56:54.609Z,95876.97
2022-09-27T15:59:30.089Z,95878.16
2022-09-27T16:02:07.569Z,95890.78
2022-09-27T16:04:34.597Z,95889.69
2022-09-27T16:07:04.689Z,95894.56
2022-09-27T16:09:33.733Z,95891.50
2022-09-27T16:12:00.416Z,95882.63
2022-09-27T16:14:26.963Z,95855.91
2022-09-27T16:17:00.770Z,95880.13
2022-09-27T16:19:29.591Z,95878.28
2022-09-27T16:21:56.144Z,95886.38
2022-09-27T16:24:25.594Z,95891.47
2022-09-27T16:26:54.717Z,95891.56
2022-09-27T16:29:23.532Z,95899.72
2022-09-27T16:31:50.805Z,95899.28
2022-09-27T16:34:19.926Z,95901.34
2022-09-27T16:36:46.835Z,95902.09
2022-09-27T16:39:14.025Z,95895.28
2022-09-27T16:41:41.949Z,95896.91
2022-09-27T16:44:12.971Z,95908.16
2022-09-27T16:46:43.215Z,95896.16
2022-09-27T16:49:30.835Z,95886.41
2022-09-27T16:52:00.996Z,95882.44
2022-09-27T16:54:29.479Z,95890.38
2022-09-27T16:56:58.863Z,95892.19
2022-09-27T16:59:25.922Z,95881.47
2022-09-27T17:01:57.499Z,95882.88
2022-09-27T17:04:27.688Z,95886.22
2022-09-27T17:06:57.063Z,95890.34
2022-09-27T17:09:23.881Z,95878.34
2022-09-27T17:11:51.212Z,95875.97
2022-09-27T17:14:18.314Z,95879.88
2022-09-27T17:16:45.797Z,95881.91
2022-09-27T17:19:13.695Z,95883.34
2022-09-27T17:21:43.614Z,95881.81
2022-09-27T17:24:10.358Z,95880.88
2022-09-27T17:26:39.766Z,95884.72
2022-09-27T17:29:09.668Z,95882.00
2022-09-27T17:31:38.286Z,95877.81
2022-09-27T17:34:12.307Z,95874.97
2022-09-27T17:36:42.347Z,95874.34
2022-09-27T17:39:13.513Z,95877.34
2022-09-27T17:41:40.327Z,95882.00
2022-09-27T17:44:07.369Z,95888.06
2022-09-27T17:46:36.488Z,95889.59
2022-09-27T17:49:22.689Z,95885.38
2022-09-27T17:51:51.686Z,95883.84
2022-09-27T17:54:20.445Z,95891.22
2022-09-27T17:56:48.059Z,95892.28
2022-09-27T17:59:16.025Z,95869.47
2022-09-27T18:01:47.848Z,95890.47
2022-09-27T18:04:20.020Z,95884.28
2022-09-27T18:06:47.579Z,95884.59
2022-09-27T18:09:19.774Z,95891.53
2022-09-27T18:11:46.480Z,95882.00
2022-09-27T18:14:15.796Z,95885.78
2022-09-27T18:16:44.225Z,95870.13
2022-09-27T18:19:16.135Z,95883.22
2022-09-27T18:21:46.311Z,95876.41
2022-09-27T18:24:14.808Z,95882.59
2022-09-27T18:26:44.207Z,95877.28
2022-09-27T18:29:15.413Z,95884.13
2022-09-27T18:31:48.709Z,95879.91
2022-09-27T18:34:17.912Z,95885.97
2022-09-27T18:36:44.865Z,95878.31
2022-09-27T18:39:19.072Z,95893.03
2022-09-27T18:41:48.562Z,95892.25
2022-09-27T18:44:18.958Z,95898.44
2022-09-27T18:46:46.275Z,95898.31
2022-09-27T18:49:14.471Z,95896.81
2022-09-27T18:51:46.218Z,95896.81
2022-09-27T18:54:24.948Z,95905.25
2022-09-27T18:56:52.431Z,95905.81
2022-09-27T18:59:20.831Z,95906.13
2022-09-27T19:01:47.678Z,95907.22
2022-09-27T19:04:24.189Z,95913.81
2022-09-27T19:06:52.085Z,95914.78
2022-09-27T19:09:18.872Z,95909.34
2022-09-27T19:11:48.093Z,95915.34
2022-09-27T19:14:20.857Z,95915.09
2022-09-27T19:16:48.454Z,95915.41
2022-09-27T19:19:19.531Z,95921.88
2022-09-27T19:21:50.741Z,95916.94
2022-09-27T19:24:19.756Z,95920.25
2022-09-27T19:26:50.013Z,95913.47
2022-09-27T19:29:16.684Z,95913.47
2022-09-27T19:31:45.919Z,95912.78
2022-09-27T19:34:17.212Z,95902.41
2022-09-27T19:36:43.745Z,95896.56
2022-09-27T19:39:12.735Z,95907.47
2022-09-27T19:41:41.772Z,95905.53
2022-09-27T19:44:08.479Z,95913.53
2022-09-27T19:46:36.454Z,95920.41
2022-09-27T19:49:03.120Z,95909.34
2022-09-27T19:51:31.060Z,95899.66
2022-09-27T19:54:00.762Z,95904.34
2022-09-27T19:56:27.333Z,95915.38
2022-09-27T19:58:56.850Z,95918.81
2022-09-27T20:01:25.666Z,95919.03
2022-09-27T20:03:55.738Z,95915.06
2022-09-27T20:06:22.508Z,95915.38
2022-09-27T20:08:51.536Z,95912.66
2022-09-27T20:11:23.353Z,95913.03
2022-09-27T20:13:52.925Z,95924.16
2022-09-27T20:16:22.241Z,95916.59
2022-09-27T20:18:59.171Z,95920.25
2022-09-27T20:21:32.531Z,95914.09
2022-09-27T20:24:02.666Z,95906.97
2022-09-27T20:26:30.992Z,95891.91
2022-09-27T20:29:00.008Z,95907.47
2022-09-27T20:31:29.791Z,95908.34
2022-09-27T20:33:58.854Z,95891.34
2022-09-27T20:36:28.502Z,95892.09
2022-09-27T20:39:12.562Z,95894.69
2022-09-27T20:41:43.780Z,95892.28
2022-09-27T20:44:12.897Z,95888.00
2022-09-27T20:46:41.569Z,95890.38
2022-09-27T20:49:10.434Z,95887.56
2022-09-27T20:51:41.034Z,95874.63
2022-09-27T20:54:09.579Z,95871.31
2022-09-27T20:56:40.826Z,95864.13
2022-09-27T20:59:15.223Z,95867.91
2022-09-27T21:01:44.002Z,95861.41
2022-09-27T21:04:14.593Z,95842.59
2022-09-27T21:06:41.862Z,95846.03
2022-09-27T21:09:17.156Z,95830.72
2022-09-27T21:11:46.517Z,95847.91
2022-09-27T21:14:16.071Z,95845.53
2022-09-27T21:16:42.848Z,95842.19
2022-09-27T21:19:10.003Z,95851.69
2022-09-27T21:21:37.043Z,95843.25
2022-09-27T21:24:03.753Z,95824.66
2022-09-27T21:26:32.737Z,95831.38
2022-09-27T21:29:01.725Z,95831.91
2022-09-27T21:31:32.354Z,95832.13
2022-09-27T21:34:01.135Z,95832.13
2022-09-27T21:36:33.607Z,95834.38
2022-09-27T21:39:00.765Z,95842.69
2022-09-27T21:41:28.175Z,95836.09
2022-09-27T21:43:57.337Z,95844.00
2022-09-27T21:46:26.683Z,95836.78
2022-09-27T21:49:00.337Z,95840.44
2022-09-27T21:51:30.897Z,95845.84
2022-09-27T21:54:02.144Z,95850.75
2022-09-27T21:56:35.990Z,95830.31
2022-09-27T21:59:04.725Z,95834.50
2022-09-27T22:01:34.206Z,95830.47
2022-09-27T22:04:02.229Z,95825.13
2022-09-27T22:06:33.899Z,95824.38
2022-09-27T22:09:03.314Z,95805.31
2022-09-27T22:11:42.476Z,95826.38
2022-09-27T22:14:09.644Z,95814.78
2022-09-27T22:16:36.849Z,95817.81
2022-09-27T22:19:04.088Z,95811.50
2022-09-27T22:21:37.885Z,95807.75
2022-09-27T22:24:12.566Z,95796.44
2022-09-27T22:26:41.121Z,95797.41
2022-09-27T22:29:08.791Z,95793.28
2022-09-27T22:31:36.099Z,95785.06
2022-09-27T22:34:05.750Z,95781.69
2022-09-27T22:36:33.529Z,95782.03
2022-09-27T22:39:02.740Z,95779.31
2022-09-27T22:41:30.431Z,95766.66
2022-09-27T22:43:57.989Z,95770.16
2022-09-27T22:46:27.287Z,95759.16
2022-09-27T22:48:54.206Z,95751.03
2022-09-27T22:51:20.729Z,95756.75
2022-09-27T22:53:47.440Z,95752.09
2022-09-27T22:56:19.440Z,95755.69
2022-09-27T22:58:51.746Z,95743.06
2022-09-27T23:01:27.186Z,95756.38
2022-09-27T23:03:54.899Z,95741.63
2022-09-27T23:06:22.753Z,95738.16
2022-09-27T23:08:52.459Z,95733.19
2022-09-27T23:11:21.916Z,95713.78
2022-09-27T23:13:51.025Z,95710.00
2022-09-27T23:16:24.684Z,95700.56
2022-09-27T23:18:56.579Z,95688.31
2022-09-27T23:21:25.874Z,95692.53
2022-09-27T23:23:55.186Z,95698.41
2022-09-27T23:26:25.914Z,95697.78
2022-09-27T23:29:00.251Z,95697.66
2022-09-27T23:31:31.701Z,95700.78
2022-09-27T23:34:01.594Z,95692.34
2022-09-27T23:36:28.406Z,95689.47
2022-09-27T23:38:58.180Z,95691.44
2022-09-27T23:41:27.158Z,95679.19
2022-09-27T23:43:56.664Z,95685.84
2022-09-27T23:46:25.892Z,95671.53
2022-09-27T23:48:53.710Z,95672.78
2022-09-27T23:51:23.226Z,95658.91
2022-09-27T23:53:49.799Z,95657.13
2022-09-27T23:56:22.124Z,95649.00
2022-09-27T23:58:48.745Z,95638.00
